Time;durP1;ratioP1;P1;durP2;ratioP2;P2;SDS_P1;SDS_P2;PMS_P1;PMS_P2;Temp;Humidity;BMP_temperature;BMP_pressure;BME280_temperature;BME280_humidity;BME280_pressure;Samples;Min_cycle;Max_cycle;Signal;HPM_P1;HPM_P2
2021/03/11 00:01:21;;;;;;;58.17;28.95;;;;;;;5.22;100.00;99942.34;5057276;28;20068;-62
2021/03/11 00:03:48;;;;;;;54.17;27.45;;;;;;;5.25;100.00;99949.28;5059084;28;20075;-61
2021/03/11 00:06:14;;;;;;;55.10;27.55;;;;;;;5.24;100.00;99951.09;5058000;28;20052;-62
2021/03/11 00:08:40;;;;;;;59.15;28.33;;;;;;;5.28;100.00;99950.84;5056531;28;20052;-62
2021/03/11 00:11:06;;;;;;;58.38;30.35;;;;;;;5.26;100.00;99938.47;5057310;28;20040;-64
2021/03/11 00:13:32;;;;;;;53.22;29.17;;;;;;;5.26;100.00;99933.13;5057225;28;20097;-61
2021/03/11 00:15:58;;;;;;;48.47;26.92;;;;;;;5.26;100.00;99938.47;5059276;28;20064;-62
2021/03/11 00:18:24;;;;;;;48.05;29.45;;;;;;;5.30;100.00;99904.41;5057072;28;20058;-60
2021/03/11 00:20:51;;;;;;;52.55;28.35;;;;;;;5.31;100.00;99913.25;5058791;28;20057;-61
2021/03/11 00:23:17;;;;;;;53.88;28.23;;;;;;;5.34;100.00;99908.50;5058117;28;20064;-61
2021/03/11 00:25:43;;;;;;;51.10;26.35;;;;;;;5.34;100.00;99891.66;5062330;28;20048;-62
2021/03/11 00:28:08;;;;;;;50.95;25.25;;;;;;;5.41;100.00;99899.00;5060231;28;20059;-62
2021/03/11 00:30:35;;;;;;;45.33;25.63;;;;;;;5.43;100.00;99880.19;5060284;28;20131;-61
2021/03/11 00:33:01;;;;;;;46.15;27.23;;;;;;;5.46;100.00;99869.28;5060292;28;20493;-61
2021/03/11 00:35:27;;;;;;;42.88;26.40;;;;;;;5.47;100.00;99849.63;5062105;28;20056;-62
2021/03/11 00:37:54;;;;;;;42.25;23.92;;;;;;;5.53;100.00;99842.94;5061576;28;20179;-63
2021/03/11 00:40:21;;;;;;;44.80;22.85;;;;;;;5.53;100.00;99841.09;5061068;28;20053;-62
2021/03/11 00:42:48;;;;;;;45.28;26.15;;;;;;;5.51;100.00;99824.38;5061180;28;20429;-62
2021/03/11 00:45:15;;;;;;;45.95;24.92;;;;;;;5.51;100.00;99840.38;5060156;28;20063;-61
2021/03/11 00:47:41;;;;;;;43.58;25.50;;;;;;;5.52;100.00;99815.41;5052601;28;20052;-62
2021/03/11 00:50:10;;;;;;;49.35;24.25;;;;;;;5.55;100.00;99793.78;5061342;28;20055;-63
2021/03/11 00:52:36;;;;;;;40.95;23.38;;;;;;;5.60;100.00;99815.59;5061814;28;20444;-63
2021/03/11 00:55:05;;;;;;;42.35;24.50;;;;;;;5.60;100.00;99812.09;5059028;28;20099;-61
2021/03/11 00:57:31;;;;;;;42.20;26.15;;;;;;;5.61;100.00;99789.75;5060440;28;20099;-62
2021/03/11 00:59:56;;;;;;;42.78;22.30;;;;;;;5.66;100.00;99810.72;5060611;28;20049;-63
2021/03/11 01:02:22;;;;;;;43.13;22.35;;;;;;;5.61;100.00;99795.94;5060651;28;20394;-61
2021/03/11 01:04:48;;;;;;;43.17;24.05;;;;;;;5.61;100.00;99779.09;5062620;28;20118;-63
2021/03/11 01:09:43;;;;;;;47.42;25.00;;;;;;;5.61;100.00;99766.56;5039865;23;20068;-62
2021/03/11 01:12:12;;;;;;;47.22;25.98;;;;;;;5.58;100.00;99758.81;5020458;28;20053;-62
2021/03/11 01:14:38;;;;;;;50.58;27.23;;;;;;;5.60;100.00;99754.19;5022445;28;20065;-62
2021/03/11 01:17:04;;;;;;;44.67;23.52;;;;;;;5.64;100.00;99753.94;5019844;28;20042;-62
2021/03/11 01:19:30;;;;;;;43.33;27.00;;;;;;;5.65;100.00;99744.94;5021183;28;20384;-62
2021/03/11 01:21:56;;;;;;;50.67;27.92;;;;;;;5.67;100.00;99759.88;5020667;28;20049;-62
2021/03/11 01:24:22;;;;;;;47.70;26.00;;;;;;;5.72;100.00;99738.09;5020643;28;20080;-61
2021/03/11 01:26:48;;;;;;;49.20;25.90;;;;;;;5.73;100.00;99726.47;5020175;28;20143;-63
2021/03/11 01:29:15;;;;;;;40.83;23.27;;;;;;;5.76;100.00;99731.53;5018872;28;20052;-61
2021/03/11 01:31:41;;;;;;;42.83;24.65;;;;;;;5.80;100.00;99727.63;5021189;28;20056;-61
2021/03/11 01:34:07;;;;;;;43.90;22.80;;;;;;;5.80;100.00;99716.94;5018236;28;20062;-63
2021/03/11 01:36:33;;;;;;;43.22;24.55;;;;;;;5.80;100.00;99716.94;5021273;28;20056;-62
2021/03/11 01:38:59;;;;;;;47.30;27.48;;;;;;;5.84;100.00;99718.34;5019629;28;20060;-62
2021/03/11 01:41:25;;;;;;;39.20;24.52;;;;;;;5.87;100.00;99706.56;5020233;28;20050;-63
2021/03/11 01:43:54;;;;;;;46.65;25.80;;;;;;;5.88;100.00;99698.41;5021326;28;20574;-63
2021/03/11 01:46:22;;;;;;;44.25;23.42;;;;;;;5.90;100.00;99691.13;5020941;28;20049;-62
2021/03/11 01:48:48;;;;;;;43.67;25.15;;;;;;;5.90;100.00;99696.47;5020309;28;20054;-61
2021/03/11 01:51:15;;;;;;;46.20;26.27;;;;;;;5.90;100.00;99676.91;5020352;28;20050;-63
2021/03/11 01:53:41;;;;;;;48.38;26.50;;;;;;;5.91;100.00;99654.56;5018851;28;20061;-61
2021/03/11 01:56:06;;;;;;;41.22;23.75;;;;;;;5.95;100.00;99678.19;5020112;28;20080;-61
2021/03/11 01:58:33;;;;;;;46.80;25.73;;;;;;;5.96;100.00;99665.69;5020836;28;20042;-61
2021/03/11 02:00:59;;;;;;;42.40;24.70;;;;;;;5.95;100.00;99635.47;5018482;28;20050;-61
2021/03/11 02:03:26;;;;;;;41.22;24.92;;;;;;;6.02;100.00;99626.94;5021625;28;20045;-62
2021/03/11 02:05:52;;;;;;;47.92;26.92;;;;;;;6.08;100.00;99608.53;5019756;28;20454;-61
2021/03/11 02:08:18;;;;;;;43.80;26.65;;;;;;;6.10;100.00;99595.03;5020145;28;20448;-63
2021/03/11 02:10:44;;;;;;;42.72;25.05;;;;;;;6.09;100.00;99615.56;5039851;28;20154;-61
2021/03/11 02:13:21;;;;;;;44.00;25.05;;;;;;;6.13;100.00;99618.81;5038714;28;20075;-62
2021/03/11 02:15:53;;;;;;;45.08;26.60;;;;;;;6.16;100.00;99620.38;5040790;28;20049;-62
2021/03/11 02:18:26;;;;;;;47.45;25.45;;;;;;;6.20;100.00;99616.41;5040160;28;20054;-61
2021/03/11 02:21:01;;;;;;;41.13;23.17;;;;;;;6.23;100.00;99622.34;5039888;28;20053;-61
2021/03/11 02:23:43;;;;;;;42.42;26.70;;;;;;;6.24;100.00;99602.66;5039160;28;20049;-62
2021/03/11 02:26:22;;;;;;;45.85;25.45;;;;;;;6.29;100.00;99578.19;5036964;28;20049;-60
2021/03/11 02:28:56;;;;;;;43.05;26.75;;;;;;;6.35;100.00;99603.50;5042543;28;20071;-60
2021/03/11 02:31:23;;;;;;;41.20;22.35;;;;;;;6.38;100.00;99590.69;5082394;22;20063;-62
2021/03/11 02:33:51;;;;;;;44.40;24.83;;;;;;;6.36;100.00;99586.47;4999924;28;20054;-62
2021/03/11 02:36:18;;;;;;;43.03;24.40;;;;;;;6.40;100.00;99585.22;4999283;28;20112;-61
2021/03/11 02:38:45;;;;;;;38.00;21.80;;;;;;;6.42;100.00;99569.88;4996584;28;20516;-60
2021/03/11 02:41:12;;;;;;;37.38;22.20;;;;;;;6.44;100.00;99554.56;4999312;28;20499;-60
2021/03/11 02:43:39;;;;;;;40.17;22.52;;;;;;;6.41;100.00;99549.50;5001327;28;20066;-62
2021/03/11 02:46:07;;;;;;;38.38;22.50;;;;;;;6.46;100.00;99579.28;4999120;28;20058;-61
2021/03/11 02:48:34;;;;;;;36.13;21.83;;;;;;;6.51;100.00;99534.28;5000513;28;20101;-64
2021/03/11 02:51:01;;;;;;;31.95;21.90;;;;;;;6.53;100.00;99561.72;4999372;28;20054;-62
2021/03/11 02:53:27;;;;;;;35.97;23.42;;;;;;;6.60;100.00;99544.13;4996400;28;20043;-60
2021/03/11 02:55:55;;;;;;;32.50;20.40;;;;;;;6.60;100.00;99554.81;4998345;28;20104;-62
2021/03/11 02:58:22;;;;;;;33.13;20.30;;;;;;;6.57;100.00;99554.28;4999344;28;20054;-60
2021/03/11 03:00:49;;;;;;;32.45;21.83;;;;;;;6.60;100.00;99532.59;4997935;28;20050;-61
2021/03/11 03:03:16;;;;;;;33.80;20.92;;;;;;;6.62;100.00;99533.28;5000738;28;20392;-61
2021/03/11 03:05:43;;;;;;;32.25;19.80;;;;;;;6.68;100.00;99561.28;5000436;28;20058;-61
2021/03/11 03:08:09;;;;;;;34.67;21.92;;;;;;;6.69;100.00;99561.13;4998450;28;20062;-61
2021/03/11 03:10:37;;;;;;;33.67;22.25;;;;;;;6.68;100.00;99542.56;4998410;28;20057;-61
2021/03/11 03:13:11;;;;;;;31.90;20.35;;;;;;;6.70;100.00;99549.47;5000201;28;20050;-60
2021/03/11 03:15:38;;;;;;;30.45;20.58;;;;;;;6.76;100.00;99559.56;5000497;28;20569;-61
2021/03/11 03:18:05;;;;;;;29.90;19.73;;;;;;;6.80;100.00;99570.81;4999576;28;20131;-61
2021/03/11 03:20:32;;;;;;;27.73;17.70;;;;;;;6.86;100.00;99551.53;4997572;28;20537;-61
2021/03/11 03:23:00;;;;;;;28.05;18.90;;;;;;;6.87;100.00;99533.66;4999757;28;20466;-60
2021/03/11 03:25:26;;;;;;;27.02;16.77;;;;;;;6.94;100.00;99529.41;4998830;28;20519;-61
2021/03/11 03:27:52;;;;;;;26.33;17.05;;;;;;;6.99;100.00;99509.28;4999115;28;20062;-61
2021/03/11 03:30:19;;;;;;;25.42;15.60;;;;;;;7.00;100.00;99518.97;4998287;28;20470;-61
2021/03/11 03:32:46;;;;;;;28.05;18.52;;;;;;;6.97;100.00;99505.88;5023603;28;20080;-61
2021/03/11 03:35:14;;;;;;;24.38;17.75;;;;;;;6.97;100.00;99473.78;5038445;28;20045;-61
2021/03/11 03:37:42;;;;;;;25.85;16.02;;;;;;;6.99;100.00;99482.53;5030377;28;20064;-61
2021/03/11 03:40:11;;;;;;;24.13;15.80;;;;;;;6.97;100.00;99494.34;5037268;28;20054;-62
2021/03/11 03:42:39;;;;;;;;;;;;;;;6.99;100.00;99477.16;5039097;28;20067;-61
2021/03/11 03:45:11;;;;;;;28.88;17.42;;;;;;;6.94;100.00;99467.91;5038234;28;19925;-62
2021/03/11 03:47:37;;;;;;;31.20;18.45;;;;;;;6.92;100.00;99469.84;5039842;28;20060;-62
2021/03/11 03:50:04;;;;;;;25.05;16.52;;;;;;;6.98;100.00;99454.06;5038938;28;20052;-63
2021/03/11 03:52:33;;;;;;;28.85;18.50;;;;;;;6.98;100.00;99440.69;5038082;28;20048;-63
2021/03/11 03:55:02;;;;;;;28.33;18.40;;;;;;;6.98;100.00;99445.22;5039252;28;20045;-61
2021/03/11 03:57:30;;;;;;;31.92;19.92;;;;;;;6.99;100.00;99463.78;5038389;28;20046;-61
2021/03/11 03:59:57;;;;;;;30.57;19.20;;;;;;;7.02;100.00;99454.59;5037738;28;20053;-61
2021/03/11 04:02:24;;;;;;;29.13;18.95;;;;;;;7.08;100.00;99454.03;5036499;28;20045;-61
2021/03/11 04:04:51;;;;;;;26.17;19.05;;;;;;;7.13;100.00;99445.56;5038785;28;20086;-62
2021/03/11 04:07:21;;;;;;;33.47;18.92;;;;;;;7.12;100.00;99430.50;5037231;28;20060;-61
2021/03/11 04:09:48;;;;;;;32.78;20.42;;;;;;;7.16;100.00;99416.66;5037581;28;20065;-62
2021/03/11 04:12:17;;;;;;;28.77;17.67;;;;;;;7.17;100.00;99402.31;5039115;28;20048;-61
2021/03/11 04:14:45;;;;;;;34.20;21.37;;;;;;;7.26;100.00;99400.56;5039155;28;20049;-61
2021/03/11 04:17:11;;;;;;;29.20;18.58;;;;;;;7.31;100.00;99397.41;5037721;28;20294;-61
2021/03/11 04:19:38;;;;;;;28.50;17.25;;;;;;;7.30;100.00;99385.88;5038941;28;20414;-63
2021/03/11 04:22:05;;;;;;;30.40;19.48;;;;;;;7.40;100.00;99384.97;5036726;28;20060;-62
2021/03/11 04:24:31;;;;;;;29.08;18.40;;;;;;;7.42;100.00;99377.63;5036590;28;20053;-61
2021/03/11 04:27:00;;;;;;;28.58;19.60;;;;;;;7.43;100.00;99358.72;5038233;28;20053;-63
2021/03/11 04:29:27;;;;;;;27.97;18.87;;;;;;;7.46;100.00;99379.84;5037030;28;20468;-62
2021/03/11 04:31:54;;;;;;;25.52;16.45;;;;;;;7.57;100.00;99362.72;5031849;28;20494;-61
2021/03/11 04:34:21;;;;;;;28.30;18.13;;;;;;;7.66;100.00;99369.81;5037536;28;20052;-62
2021/03/11 04:36:48;;;;;;;26.42;18.85;;;;;;;7.64;100.00;99366.47;5034340;28;20049;-63
2021/03/11 04:39:14;;;;;;;25.42;16.73;;;;;;;7.66;100.00;99342.22;5035642;28;20195;-61
2021/03/11 04:41:40;;;;;;;30.42;18.67;;;;;;;7.68;100.00;99335.69;5029844;28;20049;-62
2021/03/11 04:44:07;;;;;;;27.27;17.75;;;;;;;7.75;100.00;99346.63;5036994;28;20072;-63
2021/03/11 04:46:34;;;;;;;24.95;17.30;;;;;;;7.82;100.00;99325.44;5039451;28;20049;-62
2021/03/11 04:49:02;;;;;;;26.17;18.05;;;;;;;7.85;100.00;99320.59;5038234;28;20060;-63
2021/03/11 04:51:30;;;;;;;27.25;17.92;;;;;;;7.89;100.00;99330.00;5037646;28;20046;-62
2021/03/11 04:53:57;;;;;;;24.73;16.20;;;;;;;7.88;100.00;99327.47;5035829;28;20058;-62
2021/03/11 04:56:24;;;;;;;26.05;17.50;;;;;;;7.90;100.00;99309.41;5037917;28;20052;-62
2021/03/11 04:58:50;;;;;;;25.02;17.02;;;;;;;7.91;100.00;99323.66;5038260;28;20128;-63
2021/03/11 05:01:21;;;;;;;25.55;15.98;;;;;;;7.93;100.00;99309.09;5036273;28;20037;-62
2021/03/11 05:03:49;;;;;;;25.10;16.70;;;;;;;7.89;100.00;99316.59;5036701;28;20132;-62
2021/03/11 05:06:15;;;;;;;30.70;18.58;;;;;;;7.89;100.00;99321.09;5038246;28;20129;-62
2021/03/11 05:08:42;;;;;;;31.48;19.52;;;;;;;7.85;100.00;99301.00;5038228;28;20409;-62
2021/03/11 05:11:08;;;;;;;27.67;18.98;;;;;;;7.83;100.00;99305.66;5041657;28;20464;-60
2021/03/11 05:13:34;;;;;;;30.63;19.25;;;;;;;7.84;100.00;99302.00;5040028;28;20502;-62
2021/03/11 05:16:00;;;;;;;34.75;20.83;;;;;;;7.85;100.00;99299.16;5042195;28;20512;-61
2021/03/11 05:18:27;;;;;;;31.40;19.13;;;;;;;7.85;100.00;99285.75;5041064;28;20045;-61
2021/03/11 05:20:54;;;;;;;34.28;19.85;;;;;;;7.82;100.00;99286.09;5041449;28;20053;-62
2021/03/11 05:23:21;;;;;;;35.40;20.02;;;;;;;7.80;100.00;99279.19;5040500;28;20072;-61
2021/03/11 05:25:47;;;;;;;31.65;19.02;;;;;;;7.84;100.00;99278.72;5040284;28;20065;-62
2021/03/11 05:28:13;;;;;;;29.48;18.10;;;;;;;7.86;100.00;99273.22;5038242;28;20049;-60
2021/03/11 05:30:39;;;;;;;32.00;20.02;;;;;;;7.88;100.00;99268.53;5041202;28;20080;-62
2021/03/11 05:33:06;;;;;;;34.40;20.38;;;;;;;7.89;100.00;99251.44;5040426;28;20086;-60
2021/03/11 05:35:32;;;;;;;39.03;21.08;;;;;;;7.87;100.00;99258.81;5042148;28;20052;-62
2021/03/11 05:38:00;;;;;;;31.58;20.45;;;;;;;7.91;100.00;99260.19;5040739;28;20072;-61
2021/03/11 05:40:26;;;;;;;35.55;19.13;;;;;;;7.93;100.00;99243.97;5037953;28;20432;-60
2021/03/11 05:42:53;;;;;;;32.22;18.80;;;;;;;7.92;100.00;99251.16;5040982;28;20049;-60
2021/03/11 05:45:20;;;;;;;33.72;22.17;;;;;;;7.99;100.00;99225.38;5039844;28;20103;-60
2021/03/11 05:47:46;;;;;;;29.88;17.95;;;;;;;8.09;100.00;99235.16;5039483;28;20053;-61
2021/03/11 05:50:14;;;;;;;30.08;18.17;;;;;;;8.10;100.00;99236.81;5039208;28;20049;-59
2021/03/11 05:52:40;;;;;;;32.65;19.90;;;;;;;8.14;100.00;99216.75;5040857;28;20057;-61
2021/03/11 05:55:09;;;;;;;23.55;15.82;;;;;;;8.16;100.00;99241.56;5039938;28;20045;-61
2021/03/11 05:57:38;;;;;;;28.70;16.48;;;;;;;8.09;100.00;99209.19;5036990;28;20045;-62
2021/03/11 06:00:05;;;;;;;28.05;16.85;;;;;;;8.19;100.00;99209.09;5039788;28;20068;-60
2021/03/11 06:02:35;;;;;;;29.75;16.85;;;;;;;8.20;100.00;99225.00;5037841;28;20338;-61
2021/03/11 06:05:01;;;;;;;27.17;16.63;;;;;;;8.22;100.00;99198.88;5041859;28;20045;-62
2021/03/11 06:07:28;;;;;;;26.92;16.88;;;;;;;8.23;100.00;99211.28;5037023;28;20053;-62
2021/03/11 06:09:56;;;;;;;25.95;17.63;;;;;;;8.21;100.00;99212.44;5039319;28;20063;-61
2021/03/11 06:12:23;;;;;;;28.65;17.48;;;;;;;8.21;100.00;99212.44;5039059;28;20470;-60
2021/03/11 06:14:54;;;;;;;26.58;15.73;;;;;;;8.19;100.00;99201.06;5039462;28;20057;-60
2021/03/11 06:17:22;;;;;;;27.92;16.67;;;;;;;8.28;100.00;99237.59;5038118;28;20049;-60
2021/03/11 06:19:48;;;;;;;27.55;17.23;;;;;;;8.30;100.00;99224.84;5038857;28;20079;-61
2021/03/11 06:22:14;;;;;;;26.58;15.98;;;;;;;8.34;100.00;99231.59;5037152;28;20048;-63
2021/03/11 06:24:43;;;;;;;24.73;15.25;;;;;;;8.33;100.00;99223.69;5039659;28;20049;-62
2021/03/11 06:27:09;;;;;;;25.00;16.90;;;;;;;8.31;100.00;99207.78;5038390;28;20482;-61
2021/03/11 06:29:37;;;;;;;23.73;16.15;;;;;;;8.33;100.00;99215.66;5037884;28;20180;-62
2021/03/11 06:32:04;;;;;;;22.42;14.70;;;;;;;8.34;100.00;99194.06;5034258;28;20065;-62
2021/03/11 06:34:35;;;;;;;22.55;15.07;;;;;;;8.45;100.00;99192.09;5038001;28;20060;-61
2021/03/11 06:37:01;;;;;;;21.92;13.68;;;;;;;8.53;100.00;99189.47;5036186;28;20136;-62
2021/03/11 06:39:30;;;;;;;21.65;13.32;;;;;;;8.60;100.00;99190.47;5035561;28;20434;-62
2021/03/11 06:41:56;;;;;;;21.75;12.73;;;;;;;8.61;100.00;99183.25;5036477;28;20717;-63
2021/03/11 06:44:41;;;;;;;20.20;12.70;;;;;;;8.59;100.00;99178.06;5035673;28;20057;-62
2021/03/11 06:47:08;;;;;;;14.95;10.10;;;;;;;8.66;100.00;99189.81;5034277;28;20470;-63
2021/03/11 06:49:35;;;;;;;18.02;10.90;;;;;;;8.71;100.00;99176.72;5038854;28;20721;-62
2021/03/11 06:52:12;;;;;;;19.83;11.50;;;;;;;8.72;100.00;99158.81;5039644;28;20076;-62
2021/03/11 06:54:51;;;;;;;18.90;9.93;;;;;;;8.84;100.00;99168.19;5039693;28;20045;-62
2021/03/11 06:57:27;;;;;;;;;;;;;;;8.81;100.00;99160.50;5040071;28;20053;-61
2021/03/11 06:59:55;;;;;;;16.38;9.05;;;;;;;8.89;100.00;99152.47;5039602;28;19921;-62
2021/03/11 07:02:22;;;;;;;15.98;9.95;;;;;;;9.09;100.00;99165.53;5037495;28;20049;-64
2021/03/11 07:04:48;;;;;;;17.60;9.57;;;;;;;9.12;100.00;99167.88;5037676;28;20080;-62
2021/03/11 07:07:18;;;;;;;14.93;9.15;;;;;;;9.10;100.00;99170.72;5038696;28;20126;-63
2021/03/11 07:09:45;;;;;;;13.52;7.85;;;;;;;9.23;100.00;99153.25;5039143;28;20049;-65
2021/03/11 07:12:11;;;;;;;15.23;7.40;;;;;;;9.44;100.00;99161.63;5039294;28;20049;-63
2021/03/11 07:14:37;;;;;;;14.00;7.38;;;;;;;9.52;100.00;99162.63;5039871;28;20507;-64
2021/03/11 07:17:21;;;;;;;16.00;7.07;;;;;;;9.46;100.00;99156.09;5039432;28;20535;-63
2021/03/11 07:20:10;;;;;;;14.15;6.40;;;;;;;9.51;100.00;99147.50;5036344;28;20103;-64
2021/03/11 07:22:37;;;;;;;12.40;6.13;;;;;;;9.52;100.00;99146.50;5037479;28;20045;-63
2021/03/11 07:27:39;;;;;;;13.00;5.55;;;;;;;9.61;100.00;99138.28;5065445;22;20058;-63
2021/03/11 07:30:07;;;;;;;10.20;5.25;;;;;;;9.63;100.00;99128.19;5053654;28;20842;-63
2021/03/11 07:32:35;;;;;;;12.95;5.38;;;;;;;9.62;100.00;99118.44;5057438;28;20122;-63
2021/03/11 07:35:02;;;;;;;11.05;5.40;;;;;;;9.61;100.00;99113.25;5056136;28;20528;-63
2021/03/11 07:37:29;;;;;;;13.23;4.82;;;;;;;9.62;100.00;99142.63;5052724;28;20072;-63
2021/03/11 07:39:59;;;;;;;14.07;5.45;;;;;;;9.58;100.00;99130.53;5053209;28;20047;-65
2021/03/11 07:42:25;;;;;;;15.95;4.97;;;;;;;9.69;100.00;99142.78;5046985;28;20059;-63
2021/03/11 07:44:52;;;;;;;12.07;4.72;;;;;;;9.69;100.00;99137.41;5051693;28;20777;-63
2021/03/11 07:47:18;;;;;;;22.45;5.22;;;;;;;9.69;100.00;99142.78;5057076;28;20049;-62
2021/03/11 07:52:49;;;;;;;16.98;4.03;;;;;;;9.71;100.00;99113.88;5029827;28;20584;-63
2021/03/11 07:55:15;;;;;;;15.90;4.78;;;;;;;9.69;100.00;99107.84;5027466;28;20056;-64
2021/03/11 07:57:46;;;;;;;18.42;4.55;;;;;;;9.60;100.00;99119.66;5035715;28;20084;-62
2021/03/11 08:00:15;;;;;;;26.02;5.05;;;;;;;9.75;100.00;99099.09;5032307;28;20045;-63
2021/03/11 08:02:50;;;;;;;19.30;5.20;;;;;;;9.70;100.00;99106.00;5032955;28;20037;-63
2021/03/11 08:05:24;;;;;;;18.48;4.65;;;;;;;9.72;100.00;99120.94;5035673;28;20136;-62
2021/03/11 08:08:11;;;;;;;22.13;5.35;;;;;;;9.69;100.00;99150.84;5038164;28;20049;-63
2021/03/11 08:10:40;;;;;;;25.98;5.80;;;;;;;9.74;100.00;99121.59;5035722;28;20075;-63
2021/03/11 08:13:21;;;;;;;;;;;;;;;9.70;100.00;99109.53;5037595;28;20106;-63
2021/03/11 08:15:47;;;;;;;29.52;5.38;;;;;;;9.71;100.00;99108.50;5038596;28;19960;-62
2021/03/11 08:18:39;;;;;;;25.73;5.22;;;;;;;9.84;100.00;99099.06;5037993;28;20124;-62
2021/03/11 08:21:06;;;;;;;27.67;5.00;;;;;;;9.94;100.00;99107.75;5038089;28;20485;-62
2021/03/11 08:23:34;;;;;;;29.80;5.18;;;;;;;10.00;100.00;99105.19;5039763;28;20053;-62
2021/03/11 08:26:01;;;;;;;20.83;5.38;;;;;;;10.08;100.00;99090.88;5038726;28;20181;-64
2021/03/11 08:28:40;;;;;;;26.30;4.85;;;;;;;10.15;100.00;99109.81;5039464;28;20072;-65
2021/03/11 08:31:07;;;;;;;26.05;4.78;;;;;;;10.15;100.00;99086.47;5037233;28;20550;-64
2021/03/11 08:33:54;;;;;;;22.52;5.03;;;;;;;10.20;100.00;99111.97;5037588;28;20073;-63
2021/03/11 08:36:39;;;;;;;25.08;5.00;;;;;;;10.10;100.00;99088.00;5038968;28;20068;-63
2021/03/11 08:39:31;;;;;;;22.17;4.82;;;;;;;10.04;100.00;99124.50;5038187;28;20049;-63
2021/03/11 08:41:58;;;;;;;24.60;5.20;;;;;;;10.06;100.00;99122.47;5028103;28;20402;-63
2021/03/11 08:44:44;;;;;;;21.05;4.85;;;;;;;10.03;100.00;99128.19;5041935;28;20095;-63
2021/03/11 08:47:11;;;;;;;26.30;5.05;;;;;;;10.00;100.00;99128.56;5042803;28;20072;-62
2021/03/11 08:49:45;;;;;;;32.25;6.07;;;;;;;10.06;100.00;99121.66;5043269;28;20064;-61
2021/03/11 08:52:39;;;;;;;23.70;5.35;;;;;;;10.14;100.00;99124.28;5041992;28;20052;-62
2021/03/11 08:55:30;;;;;;;26.25;5.70;;;;;;;10.25;100.00;99117.69;5042385;28;20095;-63
2021/03/11 08:57:56;;;;;;;22.17;5.25;;;;;;;10.18;100.00;99121.06;5043817;28;20140;-64
2021/03/11 09:00:53;;;;;;;21.48;4.70;;;;;;;10.27;100.00;99121.03;5042211;28;20060;-63
2021/03/11 09:03:36;;;;;;;19.70;4.57;;;;;;;10.36;100.00;99111.91;5042937;28;20048;-63
2021/03/11 09:06:02;;;;;;;24.15;5.35;;;;;;;10.40;100.00;99128.53;5042947;28;20132;-63
2021/03/11 09:08:28;;;;;;;18.20;4.30;;;;;;;10.34;100.00;99082.50;5043623;28;20046;-64
2021/03/11 09:11:07;;;;;;;22.67;4.88;;;;;;;10.45;100.00;99102.78;5043480;28;20057;-63
2021/03/11 09:13:33;;;;;;;28.38;5.55;;;;;;;10.52;100.00;99106.41;5042537;28;20049;-63
2021/03/11 09:15:59;;;;;;;18.67;4.47;;;;;;;10.44;100.00;99102.97;5042331;28;20509;-64
2021/03/11 09:18:25;;;;;;;29.33;5.82;;;;;;;10.41;100.00;99097.94;5042146;28;20060;-62
2021/03/11 09:20:53;;;;;;;28.60;5.25;;;;;;;10.45;100.00;99088.50;5042679;28;20135;-62
2021/03/11 09:23:19;;;;;;;22.00;4.63;;;;;;;10.46;100.00;99096.38;5041328;28;20045;-62
2021/03/11 09:25:45;;;;;;;27.88;5.45;;;;;;;10.46;100.00;99091.00;5043332;28;20095;-63
2021/03/11 09:31:03;;;;;;;20.95;5.38;;;;;;;10.48;100.00;99093.50;5023551;23;20098;-62
2021/03/11 09:33:37;;;;;;;25.23;4.80;;;;;;;10.57;100.00;99070.94;5082690;28;20051;-64
2021/03/11 09:36:08;;;;;;;30.83;5.32;;;;;;;10.50;100.00;99092.31;5082318;28;20055;-63
2021/03/11 09:38:34;;;;;;;35.03;5.47;;;;;;;10.46;100.00;99082.09;5082212;28;20056;-62
2021/03/11 09:41:02;;;;;;;29.13;6.03;;;;;;;10.41;100.00;99073.72;5082903;28;20059;-63
2021/03/11 09:43:29;;;;;;;29.38;5.65;;;;;;;10.40;100.00;99099.78;5082280;28;20457;-63
2021/03/11 09:45:57;;;;;;;30.83;5.90;;;;;;;10.46;100.00;99080.25;5082101;28;20052;-63
2021/03/11 09:48:28;;;;;;;26.17;5.15;;;;;;;10.59;100.00;99074.25;5081849;28;20041;-62
2021/03/11 09:51:01;;;;;;;26.15;5.50;;;;;;;10.55;99.87;99064.88;5083948;28;20044;-63
2021/03/11 09:53:35;;;;;;;32.45;5.72;;;;;;;10.56;98.55;99069.25;5082060;28;20044;-63
2021/03/11 09:56:01;;;;;;;28.02;5.53;;;;;;;10.54;98.60;99070.44;5080870;28;20081;-63
2021/03/11 09:58:28;;;;;;;28.65;5.93;;;;;;;10.54;97.90;99054.28;5082199;28;20069;-62
2021/03/11 10:00:54;;;;;;;20.65;5.50;;;;;;;10.61;97.92;99055.25;5081934;28;20052;-63
2021/03/11 10:03:23;;;;;;;27.73;5.18;;;;;;;10.64;98.03;99041.44;5080701;28;20036;-63
2021/03/11 10:05:55;;;;;;;23.92;4.93;;;;;;;10.64;98.79;99049.50;5073215;28;20059;-63
2021/03/11 10:08:28;;;;;;;23.20;4.95;;;;;;;10.66;97.15;99032.19;5081087;28;20052;-63
2021/03/11 10:11:08;;;;;;;26.90;5.50;;;;;;;10.61;96.56;99060.63;5081744;28;20397;-61
2021/03/11 10:13:41;;;;;;;24.42;6.75;;;;;;;10.56;97.58;99049.59;5081604;28;20060;-62
2021/03/11 10:16:08;;;;;;;27.30;5.68;;;;;;;10.57;98.12;99059.31;5080890;28;20120;-62
2021/03/11 10:18:35;;;;;;;21.05;5.20;;;;;;;10.52;98.69;99063.38;5081733;28;20059;-63
2021/03/11 10:21:08;;;;;;;26.02;5.45;;;;;;;10.47;99.09;99052.34;5082316;28;20051;-62
2021/03/11 10:23:35;;;;;;;30.25;6.03;;;;;;;10.49;98.82;99084.44;5080909;28;20135;-63
2021/03/11 10:26:21;;;;;;;27.95;5.68;;;;;;;10.49;100.00;99047.59;5079814;28;20537;-62
2021/03/11 10:28:49;;;;;;;24.27;5.53;;;;;;;10.46;100.00;99047.97;5079410;28;20055;-61
2021/03/11 10:31:15;;;;;;;31.58;5.95;;;;;;;10.40;100.00;99048.69;5080120;28;20056;-62
2021/03/11 10:33:42;;;;;;;25.92;4.97;;;;;;;10.28;100.00;99060.84;5080419;28;20071;-62
2021/03/11 10:36:19;;;;;;;34.97;5.80;;;;;;;10.18;100.00;99072.66;5079321;28;20067;-62
2021/03/11 10:39:05;;;;;;;25.65;5.05;;;;;;;10.13;100.00;99068.84;5081510;28;20066;-63
2021/03/11 10:41:32;;;;;;;29.92;5.47;;;;;;;10.05;100.00;99072.41;5080599;28;20060;-62
2021/03/11 10:44:06;;;;;;;34.58;6.47;;;;;;;9.98;100.00;99077.66;5080931;28;20055;-62
2021/03/11 10:46:32;;;;;;;28.58;6.72;;;;;;;9.95;100.00;99045.78;5081073;28;20473;-63
2021/03/11 10:48:58;;;;;;;29.05;5.68;;;;;;;9.96;100.00;99057.34;5080506;28;20052;-62
2021/03/11 10:51:27;;;;;;;26.83;5.63;;;;;;;9.92;100.00;99082.91;5080445;28;20212;-62
2021/03/11 10:53:54;;;;;;;24.58;5.65;;;;;;;9.93;100.00;99084.56;5080164;28;20075;-63
2021/03/11 10:56:20;;;;;;;26.02;5.32;;;;;;;9.96;100.00;99074.31;5078478;28;20135;-62
2021/03/11 10:58:47;;;;;;;25.52;5.35;;;;;;;10.11;100.00;99073.56;5080670;28;20048;-62
2021/03/11 11:01:21;;;;;;;27.55;6.28;;;;;;;10.11;100.00;99077.06;5079803;23;20059;-62
2021/03/11 11:03:47;;;;;;;39.20;6.55;;;;;;;10.15;100.00;99091.84;5041157;28;20070;-63
2021/03/11 11:06:13;;;;;;;31.23;5.85;;;;;;;10.20;100.00;99069.78;5039149;28;20053;-62
2021/03/11 11:08:43;;;;;;;32.55;5.97;;;;;;;10.25;100.00;99094.31;5040360;28;20061;-62
2021/03/11 11:11:09;;;;;;;28.90;5.22;;;;;;;10.16;100.00;99116.88;5040638;28;20049;-61
2021/03/11 11:13:35;;;;;;;29.48;6.05;;;;;;;9.93;100.00;99084.56;5040971;28;20052;-61
2021/03/11 11:16:01;;;;;;;29.50;6.00;;;;;;;9.81;100.00;99127.13;5040443;28;20091;-62
2021/03/11 11:18:27;;;;;;;27.70;5.97;;;;;;;9.56;100.00;99110.25;5041052;28;20135;-61
2021/03/11 11:20:53;;;;;;;32.22;6.15;;;;;;;9.31;100.00;99122.91;5040246;28;20490;-60
2021/03/11 11:23:19;;;;;;;40.50;6.63;;;;;;;9.14;100.00;99154.28;5039363;28;20049;-59
2021/03/11 11:25:46;;;;;;;30.30;5.35;;;;;;;8.97;100.00;99140.88;5039892;28;20452;-60
2021/03/11 11:28:12;;;;;;;38.10;6.50;;;;;;;8.86;100.00;99154.63;5039583;28;20059;-60
2021/03/11 11:30:38;;;;;;;37.40;6.93;;;;;;;8.74;100.00;99181.75;5031909;28;20055;-60
2021/03/11 11:33:04;;;;;;;37.83;6.60;;;;;;;8.55;100.00;99192.81;5039165;28;20536;-60
2021/03/11 11:35:30;;;;;;;34.45;5.85;;;;;;;8.45;100.00;99157.25;5039880;28;20061;-59
2021/03/11 11:37:56;;;;;;;36.55;7.07;;;;;;;8.49;100.00;99188.94;5040390;28;20446;-60